sensor_id;sensor_type;location;lat;lon;timestamp;P1;durP1;ratioP1;P2;durP2;ratioP2
8929;SDS011;4500;49.074;9.110;2024-02-04T00:02:16;1.20;;;1.20;;
8929;SDS011;4500;49.074;9.110;2024-02-04T00:04:46;1.13;;;1.13;;
8929;SDS011;4500;49.074;9.110;2024-02-04T00:07:14;1.20;;;1.20;;
8929;SDS011;4500;49.074;9.110;2024-02-04T00:09:42;3.27;;;3.17;;
8929;SDS011;4500;49.074;9.110;2024-02-04T00:12:10;4.20;;;4.00;;
8929;SDS011;4500;49.074;9.110;2024-02-04T00:14:38;5.73;;;5.43;;
8929;SDS011;4500;49.074;9.110;2024-02-04T00:17:05;5.83;;;5.53;;
8929;SDS011;4500;49.074;9.110;2024-02-04T00:19:33;7.50;;;7.13;;
8929;SDS011;4500;49.074;9.110;2024-02-04T00:22:01;5.10;;;4.90;;
8929;SDS011;4500;49.074;9.110;2024-02-04T00:24:29;4.10;;;3.90;;
8929;SDS011;4500;49.074;9.110;2024-02-04T00:26:56;4.20;;;4.00;;
8929;SDS011;4500;49.074;9.110;2024-02-04T00:29:24;1.63;;;1.57;;
8929;SDS011;4500;49.074;9.110;2024-02-04T00:31:52;1.30;;;1.30;;
8929;SDS011;4500;49.074;9.110;2024-02-04T00:34:19;1.00;;;1.00;;
8929;SDS011;4500;49.074;9.110;2024-02-04T00:36:47;0.80;;;0.80;;
8929;SDS011;4500;49.074;9.110;2024-02-04T00:39:15;0.90;;;0.90;;
8929;SDS011;4500;49.074;9.110;2024-02-04T00:41:42;2.40;;;2.30;;
8929;SDS011;4500;49.074;9.110;2024-02-04T00:44:09;4.93;;;4.73;;
8929;SDS011;4500;49.074;9.110;2024-02-04T00:46:37;6.10;;;5.80;;
8929;SDS011;4500;49.074;9.110;2024-02-04T00:49:04;5.80;;;5.50;;
8929;SDS011;4500;49.074;9.110;2024-02-04T00:51:32;6.23;;;5.93;;
8929;SDS011;4500;49.074;9.110;2024-02-04T00:54:00;6.50;;;6.20;;
8929;SDS011;4500;49.074;9.110;2024-02-04T00:56:27;4.70;;;4.50;;
8929;SDS011;4500;49.074;9.110;2024-02-04T00:58:54;1.80;;;1.73;;
8929;SDS011;4500;49.074;9.110;2024-02-04T01:01:21;0.97;;;0.97;;
8929;SDS011;4500;49.074;9.110;2024-02-04T01:03:49;1.30;;;1.30;;
8929;SDS011;4500;49.074;9.110;2024-02-04T01:06:18;0.97;;;0.97;;
8929;SDS011;4500;49.074;9.110;2024-02-04T01:08:45;1.00;;;1.00;;
8929;SDS011;4500;49.074;9.110;2024-02-04T01:11:12;1.93;;;1.83;;
8929;SDS011;4500;49.074;9.110;2024-02-04T01:13:40;4.50;;;4.30;;
8929;SDS011;4500;49.074;9.110;2024-02-04T01:16:08;4.70;;;4.50;;
8929;SDS011;4500;49.074;9.110;2024-02-04T01:18:35;6.80;;;6.50;;
8929;SDS011;4500;49.074;9.110;2024-02-04T01:21:02;7.03;;;6.70;;
8929;SDS011;4500;49.074;9.110;2024-02-04T01:23:30;6.23;;;5.93;;
8929;SDS011;4500;49.074;9.110;2024-02-04T01:25:58;4.03;;;3.83;;
8929;SDS011;4500;49.074;9.110;2024-02-04T01:28:26;2.13;;;2.07;;
8929;SDS011;4500;49.074;9.110;2024-02-04T01:30:53;1.20;;;1.17;;
8929;SDS011;4500;49.074;9.110;2024-02-04T01:33:21;1.10;;;1.10;;
8929;SDS011;4500;49.074;9.110;2024-02-04T01:35:49;0.90;;;0.90;;
8929;SDS011;4500;49.074;9.110;2024-02-04T01:38:16;0.87;;;0.87;;
8929;SDS011;4500;49.074;9.110;2024-02-04T01:40:44;1.97;;;1.87;;
8929;SDS011;4500;49.074;9.110;2024-02-04T01:43:12;2.00;;;1.90;;
8929;SDS011;4500;49.074;9.110;2024-02-04T01:45:40;4.60;;;4.40;;
8929;SDS011;4500;49.074;9.110;2024-02-04T01:48:07;5.07;;;4.83;;
8929;SDS011;4500;49.074;9.110;2024-02-04T01:50:35;5.37;;;5.10;;
8929;SDS011;4500;49.074;9.110;2024-02-04T01:53:03;6.97;;;6.63;;
8929;SDS011;4500;49.074;9.110;2024-02-04T01:55:30;5.60;;;5.30;;
8929;SDS011;4500;49.074;9.110;2024-02-04T01:57:58;3.00;;;2.90;;
8929;SDS011;4500;49.074;9.110;2024-02-04T02:00:26;2.10;;;2.03;;
8929;SDS011;4500;49.074;9.110;2024-02-04T02:02:53;1.43;;;1.40;;
8929;SDS011;4500;49.074;9.110;2024-02-04T02:05:22;0.85;;;0.85;;
8929;SDS011;4500;49.074;9.110;2024-02-04T02:07:50;0.90;;;0.90;;
8929;SDS011;4500;49.074;9.110;2024-02-04T02:10:18;1.03;;;1.03;;
8929;SDS011;4500;49.074;9.110;2024-02-04T02:12:47;1.70;;;1.60;;
8929;SDS011;4500;49.074;9.110;2024-02-04T02:15:19;1.17;;;1.17;;
8929;SDS011;4500;49.074;9.110;2024-02-04T02:20:32;5.17;;;4.93;;
8929;SDS011;4500;49.074;9.110;2024-02-04T02:23:28;5.47;;;5.20;;
8929;SDS011;4500;49.074;9.110;2024-02-04T02:26:02;6.77;;;6.43;;
8929;SDS011;4500;49.074;9.110;2024-02-04T02:28:31;4.97;;;4.77;;
8929;SDS011;4500;49.074;9.110;2024-02-04T02:30:59;5.40;;;5.13;;
8929;SDS011;4500;49.074;9.110;2024-02-04T02:33:32;6.23;;;5.93;;
8929;SDS011;4500;49.074;9.110;2024-02-04T02:36:00;5.17;;;4.93;;
8929;SDS011;4500;49.074;9.110;2024-02-04T02:38:31;5.00;;;4.80;;
8929;SDS011;4500;49.074;9.110;2024-02-04T02:41:06;5.63;;;5.33;;
8929;SDS011;4500;49.074;9.110;2024-02-04T02:43:35;5.70;;;5.40;;
8929;SDS011;4500;49.074;9.110;2024-02-04T02:46:03;6.20;;;5.90;;
8929;SDS011;4500;49.074;9.110;2024-02-04T02:48:31;6.13;;;5.83;;
8929;SDS011;4500;49.074;9.110;2024-02-04T02:50:59;4.10;;;3.90;;
8929;SDS011;4500;49.074;9.110;2024-02-04T02:53:27;4.43;;;4.23;;
8929;SDS011;4500;49.074;9.110;2024-02-04T02:55:54;2.07;;;2.00;;
8929;SDS011;4500;49.074;9.110;2024-02-04T02:58:22;1.00;;;1.00;;
8929;SDS011;4500;49.074;9.110;2024-02-04T03:00:50;1.30;;;1.30;;
8929;SDS011;4500;49.074;9.110;2024-02-04T03:03:18;1.07;;;1.07;;
8929;SDS011;4500;49.074;9.110;2024-02-04T03:05:46;1.43;;;1.33;;
8929;SDS011;4500;49.074;9.110;2024-02-04T03:08:13;1.10;;;1.10;;
8929;SDS011;4500;49.074;9.110;2024-02-04T03:10:41;3.70;;;3.53;;
8929;SDS011;4500;49.074;9.110;2024-02-04T03:13:08;5.47;;;5.20;;
8929;SDS011;4500;49.074;9.110;2024-02-04T03:15:36;5.90;;;5.60;;
8929;SDS011;4500;49.074;9.110;2024-02-04T03:18:03;6.93;;;6.60;;
8929;SDS011;4500;49.074;9.110;2024-02-04T03:20:30;5.07;;;4.83;;
8929;SDS011;4500;49.074;9.110;2024-02-04T03:22:58;3.00;;;2.90;;
8929;SDS011;4500;49.074;9.110;2024-02-04T03:25:26;2.60;;;2.47;;
8929;SDS011;4500;49.074;9.110;2024-02-04T03:27:55;2.13;;;2.07;;
8929;SDS011;4500;49.074;9.110;2024-02-04T03:30:23;1.40;;;1.37;;
8929;SDS011;4500;49.074;9.110;2024-02-04T03:32:51;1.20;;;1.20;;
8929;SDS011;4500;49.074;9.110;2024-02-04T03:35:19;1.00;;;1.00;;
8929;SDS011;4500;49.074;9.110;2024-02-04T03:37:47;1.17;;;1.17;;
8929;SDS011;4500;49.074;9.110;2024-02-04T03:40:14;1.00;;;1.00;;
8929;SDS011;4500;49.074;9.110;2024-02-04T03:42:42;3.20;;;3.10;;
8929;SDS011;4500;49.074;9.110;2024-02-04T03:45:09;5.00;;;4.80;;
8929;SDS011;4500;49.074;9.110;2024-02-04T03:47:37;5.33;;;5.10;;
8929;SDS011;4500;49.074;9.110;2024-02-04T03:50:04;5.40;;;5.17;;
8929;SDS011;4500;49.074;9.110;2024-02-04T03:52:32;6.10;;;5.80;;
8929;SDS011;4500;49.074;9.110;2024-02-04T03:55:00;5.13;;;4.90;;
8929;SDS011;4500;49.074;9.110;2024-02-04T03:57:28;4.37;;;4.17;;
8929;SDS011;4500;49.074;9.110;2024-02-04T03:59:55;1.73;;;1.67;;
8929;SDS011;4500;49.074;9.110;2024-02-04T04:02:23;0.80;;;0.80;;
8929;SDS011;4500;49.074;9.110;2024-02-04T04:04:51;1.30;;;1.30;;
8929;SDS011;4500;49.074;9.110;2024-02-04T04:07:18;0.80;;;0.80;;
8929;SDS011;4500;49.074;9.110;2024-02-04T04:09:46;2.43;;;2.33;;
8929;SDS011;4500;49.074;9.110;2024-02-04T04:12:14;1.00;;;1.00;;
8929;SDS011;4500;49.074;9.110;2024-02-04T04:14:41;3.17;;;3.07;;
8929;SDS011;4500;49.074;9.110;2024-02-04T04:17:08;5.60;;;5.33;;
8929;SDS011;4500;49.074;9.110;2024-02-04T04:19:36;5.80;;;5.50;;
8929;SDS011;4500;49.074;9.110;2024-02-04T04:22:04;6.10;;;5.80;;
8929;SDS011;4500;49.074;9.110;2024-02-04T04:24:31;5.40;;;5.13;;
8929;SDS011;4500;49.074;9.110;2024-02-04T04:26:59;4.53;;;4.33;;
8929;SDS011;4500;49.074;9.110;2024-02-04T04:29:27;4.90;;;4.70;;
8929;SDS011;4500;49.074;9.110;2024-02-04T04:31:55;2.20;;;2.13;;
8929;SDS011;4500;49.074;9.110;2024-02-04T04:34:23;0.93;;;0.93;;
8929;SDS011;4500;49.074;9.110;2024-02-04T04:36:51;1.23;;;1.23;;
8929;SDS011;4500;49.074;9.110;2024-02-04T04:39:18;1.20;;;1.20;;
8929;SDS011;4500;49.074;9.110;2024-02-04T04:41:46;1.00;;;1.00;;
8929;SDS011;4500;49.074;9.110;2024-02-04T04:44:13;1.10;;;1.10;;
8929;SDS011;4500;49.074;9.110;2024-02-04T04:46:40;4.03;;;3.83;;
8929;SDS011;4500;49.074;9.110;2024-02-04T04:49:09;5.60;;;5.33;;
8929;SDS011;4500;49.074;9.110;2024-02-04T04:51:36;5.10;;;4.90;;
8929;SDS011;4500;49.074;9.110;2024-02-04T04:54:03;6.30;;;6.00;;
8929;SDS011;4500;49.074;9.110;2024-02-04T04:56:37;5.40;;;5.13;;
8929;SDS011;4500;49.074;9.110;2024-02-04T04:59:08;5.40;;;5.13;;
8929;SDS011;4500;49.074;9.110;2024-02-04T05:01:36;5.43;;;5.20;;
8929;SDS011;4500;49.074;9.110;2024-02-04T05:04:04;6.30;;;6.00;;
8929;SDS011;4500;49.074;9.110;2024-02-04T05:06:32;4.93;;;4.73;;
8929;SDS011;4500;49.074;9.110;2024-02-04T05:08:59;5.30;;;5.10;;
8929;SDS011;4500;49.074;9.110;2024-02-04T05:11:27;4.70;;;4.47;;
8929;SDS011;4500;49.074;9.110;2024-02-04T05:13:54;2.47;;;2.37;;
8929;SDS011;4500;49.074;9.110;2024-02-04T05:16:23;1.03;;;1.03;;
8929;SDS011;4500;49.074;9.110;2024-02-04T05:18:50;1.03;;;1.03;;
8929;SDS011;4500;49.074;9.110;2024-02-04T05:21:18;1.00;;;1.00;;
8929;SDS011;4500;49.074;9.110;2024-02-04T05:23:45;1.40;;;1.37;;
8929;SDS011;4500;49.074;9.110;2024-02-04T05:26:13;1.60;;;1.60;;
8929;SDS011;4500;49.074;9.110;2024-02-04T05:28:43;1.20;;;1.20;;
8929;SDS011;4500;49.074;9.110;2024-02-04T05:31:11;3.40;;;3.30;;
8929;SDS011;4500;49.074;9.110;2024-02-04T05:33:39;4.80;;;4.60;;
8929;SDS011;4500;49.074;9.110;2024-02-04T05:36:07;5.63;;;5.33;;
8929;SDS011;4500;49.074;9.110;2024-02-04T05:38:35;5.30;;;5.07;;
8929;SDS011;4500;49.074;9.110;2024-02-04T05:41:03;5.67;;;5.37;;
8929;SDS011;4500;49.074;9.110;2024-02-04T05:43:30;6.13;;;5.83;;
8929;SDS011;4500;49.074;9.110;2024-02-04T05:45:58;4.23;;;4.03;;
8929;SDS011;4500;49.074;9.110;2024-02-04T05:48:26;2.07;;;2.00;;
8929;SDS011;4500;49.074;9.110;2024-02-04T05:50:53;1.87;;;1.77;;
8929;SDS011;4500;49.074;9.110;2024-02-04T05:53:21;1.03;;;1.03;;
8929;SDS011;4500;49.074;9.110;2024-02-04T05:55:49;0.90;;;0.90;;
8929;SDS011;4500;49.074;9.110;2024-02-04T05:58:16;1.40;;;1.40;;
8929;SDS011;4500;49.074;9.110;2024-02-04T06:00:44;1.00;;;1.00;;
8929;SDS011;4500;49.074;9.110;2024-02-04T06:03:11;3.27;;;3.17;;
8929;SDS011;4500;49.074;9.110;2024-02-04T06:05:39;5.07;;;4.87;;
8929;SDS011;4500;49.074;9.110;2024-02-04T06:08:07;5.07;;;4.83;;
8929;SDS011;4500;49.074;9.110;2024-02-04T06:10:34;5.10;;;4.90;;
8929;SDS011;4500;49.074;9.110;2024-02-04T06:13:02;6.43;;;6.13;;
8929;SDS011;4500;49.074;9.110;2024-02-04T06:15:30;5.27;;;5.03;;
8929;SDS011;4500;49.074;9.110;2024-02-04T06:17:57;5.37;;;5.10;;
8929;SDS011;4500;49.074;9.110;2024-02-04T06:20:24;2.00;;;1.93;;
8929;SDS011;4500;49.074;9.110;2024-02-04T06:22:51;2.30;;;2.20;;
8929;SDS011;4500;49.074;9.110;2024-02-04T06:25:19;1.00;;;1.00;;
8929;SDS011;4500;49.074;9.110;2024-02-04T06:27:47;1.00;;;1.00;;
8929;SDS011;4500;49.074;9.110;2024-02-04T06:30:14;1.17;;;1.17;;
8929;SDS011;4500;49.074;9.110;2024-02-04T06:32:43;1.83;;;1.73;;
8929;SDS011;4500;49.074;9.110;2024-02-04T06:35:10;4.20;;;4.00;;
8929;SDS011;4500;49.074;9.110;2024-02-04T06:37:38;5.00;;;4.80;;
8929;SDS011;4500;49.074;9.110;2024-02-04T06:40:05;6.40;;;6.10;;
8929;SDS011;4500;49.074;9.110;2024-02-04T06:42:33;7.23;;;6.87;;
8929;SDS011;4500;49.074;9.110;2024-02-04T06:45:00;7.10;;;6.77;;
8929;SDS011;4500;49.074;9.110;2024-02-04T06:47:28;3.90;;;3.70;;
8929;SDS011;4500;49.074;9.110;2024-02-04T06:49:56;3.40;;;3.23;;
8929;SDS011;4500;49.074;9.110;2024-02-04T06:52:23;1.20;;;1.17;;
8929;SDS011;4500;49.074;9.110;2024-02-04T06:54:51;0.77;;;0.77;;
8929;SDS011;4500;49.074;9.110;2024-02-04T06:57:19;1.10;;;1.10;;
8929;SDS011;4500;49.074;9.110;2024-02-04T06:59:46;1.10;;;1.10;;
8929;SDS011;4500;49.074;9.110;2024-02-04T07:02:13;1.10;;;1.10;;
8929;SDS011;4500;49.074;9.110;2024-02-04T07:04:41;3.67;;;3.57;;
8929;SDS011;4500;49.074;9.110;2024-02-04T07:07:08;5.73;;;5.43;;
8929;SDS011;4500;49.074;9.110;2024-02-04T07:09:35;4.97;;;4.77;;
8929;SDS011;4500;49.074;9.110;2024-02-04T07:12:03;6.63;;;6.33;;
8929;SDS011;4500;49.074;9.110;2024-02-04T07:14:31;5.10;;;4.87;;
8929;SDS011;4500;49.074;9.110;2024-02-04T07:16:58;5.10;;;4.90;;
8929;SDS011;4500;49.074;9.110;2024-02-04T07:19:25;2.13;;;2.07;;
8929;SDS011;4500;49.074;9.110;2024-02-04T07:21:53;0.90;;;0.90;;
8929;SDS011;4500;49.074;9.110;2024-02-04T07:24:21;1.00;;;1.00;;
8929;SDS011;4500;49.074;9.110;2024-02-04T07:26:48;1.20;;;1.20;;
8929;SDS011;4500;49.074;9.110;2024-02-04T07:29:16;1.20;;;1.20;;
8929;SDS011;4500;49.074;9.110;2024-02-04T07:31:43;1.50;;;1.50;;
8929;SDS011;4500;49.074;9.110;2024-02-04T07:34:11;3.70;;;3.57;;
8929;SDS011;4500;49.074;9.110;2024-02-04T07:36:39;5.17;;;4.93;;
8929;SDS011;4500;49.074;9.110;2024-02-04T07:39:06;5.60;;;5.33;;
8929;SDS011;4500;49.074;9.110;2024-02-04T07:41:34;6.30;;;6.00;;
8929;SDS011;4500;49.074;9.110;2024-02-04T07:44:01;5.87;;;5.57;;
8929;SDS011;4500;49.074;9.110;2024-02-04T07:46:28;3.33;;;3.23;;
8929;SDS011;4500;49.074;9.110;2024-02-04T07:48:56;3.87;;;3.70;;
8929;SDS011;4500;49.074;9.110;2024-02-04T07:51:24;2.00;;;1.93;;
8929;SDS011;4500;49.074;9.110;2024-02-04T07:53:51;1.40;;;1.40;;
8929;SDS011;4500;49.074;9.110;2024-02-04T07:56:19;1.03;;;1.03;;
8929;SDS011;4500;49.074;9.110;2024-02-04T07:58:47;0.90;;;0.90;;
8929;SDS011;4500;49.074;9.110;2024-02-04T08:01:14;0.90;;;0.90;;
8929;SDS011;4500;49.074;9.110;2024-02-04T08:03:43;2.40;;;2.30;;
8929;SDS011;4500;49.074;9.110;2024-02-04T08:06:10;4.60;;;4.40;;
8929;SDS011;4500;49.074;9.110;2024-02-04T08:08:38;4.93;;;4.73;;
8929;SDS011;4500;49.074;9.110;2024-02-04T08:11:05;5.70;;;5.40;;
8929;SDS011;4500;49.074;9.110;2024-02-04T08:13:33;6.00;;;5.70;;
8929;SDS011;4500;49.074;9.110;2024-02-04T08:16:01;7.00;;;6.70;;
8929;SDS011;4500;49.074;9.110;2024-02-04T08:18:28;3.53;;;3.40;;
8929;SDS011;4500;49.074;9.110;2024-02-04T08:20:56;2.13;;;2.07;;
8929;SDS011;4500;49.074;9.110;2024-02-04T08:23:24;1.77;;;1.70;;
8929;SDS011;4500;49.074;9.110;2024-02-04T08:25:51;0.83;;;0.83;;
8929;SDS011;4500;49.074;9.110;2024-02-04T08:28:19;1.03;;;1.03;;
8929;SDS011;4500;49.074;9.110;2024-02-04T08:30:46;0.93;;;0.93;;
8929;SDS011;4500;49.074;9.110;2024-02-04T08:33:14;1.10;;;1.10;;
8929;SDS011;4500;49.074;9.110;2024-02-04T08:35:41;3.03;;;2.93;;
8929;SDS011;4500;49.074;9.110;2024-02-04T08:38:09;5.20;;;5.00;;
8929;SDS011;4500;49.074;9.110;2024-02-04T08:40:36;5.33;;;5.10;;
8929;SDS011;4500;49.074;9.110;2024-02-04T08:43:04;6.10;;;5.80;;
8929;SDS011;4500;49.074;9.110;2024-02-04T08:45:32;6.27;;;5.97;;
8929;SDS011;4500;49.074;9.110;2024-02-04T08:48:00;4.97;;;4.77;;
8929;SDS011;4500;49.074;9.110;2024-02-04T08:50:28;4.63;;;4.43;;
8929;SDS011;4500;49.074;9.110;2024-02-04T08:52:56;2.13;;;2.07;;
8929;SDS011;4500;49.074;9.110;2024-02-04T08:55:24;2.03;;;1.97;;
8929;SDS011;4500;49.074;9.110;2024-02-04T08:57:52;0.87;;;0.87;;
8929;SDS011;4500;49.074;9.110;2024-02-04T09:00:20;1.27;;;1.27;;
8929;SDS011;4500;49.074;9.110;2024-02-04T09:02:48;1.10;;;1.10;;
8929;SDS011;4500;49.074;9.110;2024-02-04T09:05:15;0.90;;;0.90;;
8929;SDS011;4500;49.074;9.110;2024-02-04T09:07:44;0.90;;;0.90;;
8929;SDS011;4500;49.074;9.110;2024-02-04T09:10:12;3.33;;;3.23;;
8929;SDS011;4500;49.074;9.110;2024-02-04T09:12:40;4.70;;;4.50;;
8929;SDS011;4500;49.074;9.110;2024-02-04T09:15:07;5.90;;;5.60;;
8929;SDS011;4500;49.074;9.110;2024-02-04T09:17:35;5.00;;;4.80;;
8929;SDS011;4500;49.074;9.110;2024-02-04T09:20:04;6.23;;;5.93;;
8929;SDS011;4500;49.074;9.110;2024-02-04T09:22:32;5.77;;;5.47;;
8929;SDS011;4500;49.074;9.110;2024-02-04T09:25:00;5.70;;;5.40;;
8929;SDS011;4500;49.074;9.110;2024-02-04T09:27:28;3.83;;;3.63;;
8929;SDS011;4500;49.074;9.110;2024-02-04T09:29:56;2.33;;;2.27;;
8929;SDS011;4500;49.074;9.110;2024-02-04T09:32:25;1.83;;;1.77;;
8929;SDS011;4500;49.074;9.110;2024-02-04T09:34:53;1.10;;;1.10;;
8929;SDS011;4500;49.074;9.110;2024-02-04T09:37:21;1.30;;;1.30;;
8929;SDS011;4500;49.074;9.110;2024-02-04T09:39:49;1.00;;;1.00;;
8929;SDS011;4500;49.074;9.110;2024-02-04T09:42:21;1.10;;;1.10;;
8929;SDS011;4500;49.074;9.110;2024-02-04T09:44:50;1.10;;;1.10;;
8929;SDS011;4500;49.074;9.110;2024-02-04T09:47:18;1.00;;;1.00;;
8929;SDS011;4500;49.074;9.110;2024-02-04T09:49:46;1.10;;;1.10;;
8929;SDS011;4500;49.074;9.110;2024-02-04T09:52:14;1.40;;;1.40;;
8929;SDS011;4500;49.074;9.110;2024-02-04T09:54:50;1.20;;;1.20;;
8929;SDS011;4500;49.074;9.110;2024-02-04T09:57:28;4.30;;;4.10;;
8929;SDS011;4500;49.074;9.110;2024-02-04T09:59:57;4.30;;;4.10;;
8929;SDS011;4500;49.074;9.110;2024-02-04T10:02:24;1.80;;;1.73;;
8929;SDS011;4500;49.074;9.110;2024-02-04T10:04:53;1.10;;;1.10;;
8929;SDS011;4500;49.074;9.110;2024-02-04T10:07:21;0.80;;;0.80;;
8929;SDS011;4500;49.074;9.110;2024-02-04T10:09:49;0.90;;;0.90;;
8929;SDS011;4500;49.074;9.110;2024-02-04T10:12:17;1.80;;;1.70;;
8929;SDS011;4500;49.074;9.110;2024-02-04T10:14:44;1.03;;;1.03;;
8929;SDS011;4500;49.074;9.110;2024-02-04T10:17:13;2.87;;;2.77;;
8929;SDS011;4500;49.074;9.110;2024-02-04T10:19:44;1.00;;;1.00;;
8929;SDS011;4500;49.074;9.110;2024-02-04T10:22:14;1.37;;;1.37;;
8929;SDS011;4500;49.074;9.110;2024-02-04T10:24:43;1.50;;;1.50;;
8929;SDS011;4500;49.074;9.110;2024-02-04T10:27:14;2.37;;;2.27;;
8929;SDS011;4500;49.074;9.110;2024-02-04T10:29:58;1.77;;;1.70;;
8929;SDS011;4500;49.074;9.110;2024-02-04T10:32:28;4.10;;;3.90;;
8929;SDS011;4500;49.074;9.110;2024-02-04T10:35:35;1.13;;;1.13;;
8929;SDS011;4500;49.074;9.110;2024-02-04T10:38:08;5.40;;;5.13;;
8929;SDS011;4500;49.074;9.110;2024-02-04T10:40:38;4.90;;;4.70;;
8929;SDS011;4500;49.074;9.110;2024-02-04T10:43:05;4.70;;;4.50;;
8929;SDS011;4500;49.074;9.110;2024-02-04T10:45:34;5.10;;;4.90;;
8929;SDS011;4500;49.074;9.110;2024-02-04T10:48:22;6.77;;;6.47;;
8929;SDS011;4500;49.074;9.110;2024-02-04T10:50:58;4.07;;;3.87;;
8929;SDS011;4500;49.074;9.110;2024-02-04T10:53:26;1.70;;;1.63;;
8929;SDS011;4500;49.074;9.110;2024-02-04T10:55:54;1.40;;;1.37;;
8929;SDS011;4500;49.074;9.110;2024-02-04T10:58:25;2.10;;;2.03;;
8929;SDS011;4500;49.074;9.110;2024-02-04T11:00:54;1.43;;;1.37;;
8929;SDS011;4500;49.074;9.110;2024-02-04T11:03:22;0.90;;;0.90;;
8929;SDS011;4500;49.074;9.110;2024-02-04T11:05:54;1.53;;;1.47;;
8929;SDS011;4500;49.074;9.110;2024-02-04T11:08:22;0.90;;;0.90;;
8929;SDS011;4500;49.074;9.110;2024-02-04T11:10:50;0.97;;;0.97;;
8929;SDS011;4500;49.074;9.110;2024-02-04T11:13:20;1.33;;;1.33;;
8929;SDS011;4500;49.074;9.110;2024-02-04T11:15:48;1.27;;;1.27;;
8929;SDS011;4500;49.074;9.110;2024-02-04T11:26:53;1.07;;;1.07;;
8929;SDS011;4500;49.074;9.110;2024-02-04T11:29:21;1.20;;;1.20;;
8929;SDS011;4500;49.074;9.110;2024-02-04T11:31:49;1.10;;;1.10;;
8929;SDS011;4500;49.074;9.110;2024-02-04T11:34:17;1.20;;;1.20;;
8929;SDS011;4500;49.074;9.110;2024-02-04T11:36:46;1.20;;;1.20;;
8929;SDS011;4500;49.074;9.110;2024-02-04T11:39:14;2.63;;;2.53;;
8929;SDS011;4500;49.074;9.110;2024-02-04T11:41:45;0.93;;;0.93;;
8929;SDS011;4500;49.074;9.110;2024-02-04T11:44:20;1.40;;;1.40;;
8929;SDS011;4500;49.074;9.110;2024-02-04T11:46:50;0.90;;;0.90;;
8929;SDS011;4500;49.074;9.110;2024-02-04T11:49:18;1.43;;;1.43;;
8929;SDS011;4500;49.074;9.110;2024-02-04T11:51:47;0.90;;;0.90;;
8929;SDS011;4500;49.074;9.110;2024-02-04T11:54:16;1.43;;;1.43;;
8929;SDS011;4500;49.074;9.110;2024-02-04T11:56:48;0.87;;;0.87;;
8929;SDS011;4500;49.074;9.110;2024-02-04T11:59:20;1.67;;;1.57;;
8929;SDS011;4500;49.074;9.110;2024-02-04T12:01:54;0.87;;;0.87;;
8929;SDS011;4500;49.074;9.110;2024-02-04T12:04:49;0.97;;;0.97;;
8929;SDS011;4500;49.074;9.110;2024-02-04T12:07:17;1.23;;;1.23;;
8929;SDS011;4500;49.074;9.110;2024-02-04T12:09:46;1.10;;;1.10;;
8929;SDS011;4500;49.074;9.110;2024-02-04T12:12:15;1.40;;;1.40;;
8929;SDS011;4500;49.074;9.110;2024-02-04T12:14:42;2.40;;;2.30;;
8929;SDS011;4500;49.074;9.110;2024-02-04T12:17:10;4.70;;;4.50;;
8929;SDS011;4500;49.074;9.110;2024-02-04T12:19:37;5.00;;;4.80;;
8929;SDS011;4500;49.074;9.110;2024-02-04T12:22:10;4.80;;;4.60;;
8929;SDS011;4500;49.074;9.110;2024-02-04T12:24:38;4.37;;;4.17;;
8929;SDS011;4500;49.074;9.110;2024-02-04T12:27:06;4.43;;;4.23;;
8929;SDS011;4500;49.074;9.110;2024-02-04T12:29:34;6.20;;;5.90;;
8929;SDS011;4500;49.074;9.110;2024-02-04T12:32:02;4.63;;;4.43;;
8929;SDS011;4500;49.074;9.110;2024-02-04T12:34:30;4.80;;;4.60;;
8929;SDS011;4500;49.074;9.110;2024-02-04T12:37:01;5.17;;;4.97;;
8929;SDS011;4500;49.074;9.110;2024-02-04T12:39:28;3.67;;;3.47;;
8929;SDS011;4500;49.074;9.110;2024-02-04T12:41:59;3.83;;;3.63;;
8929;SDS011;4500;49.074;9.110;2024-02-04T12:44:27;4.07;;;3.87;;
8929;SDS011;4500;49.074;9.110;2024-02-04T12:46:55;1.60;;;1.53;;
8929;SDS011;4500;49.074;9.110;2024-02-04T12:49:23;2.23;;;2.13;;
8929;SDS011;4500;49.074;9.110;2024-02-04T12:51:52;1.00;;;1.00;;
8929;SDS011;4500;49.074;9.110;2024-02-04T12:54:20;1.20;;;1.20;;
8929;SDS011;4500;49.074;9.110;2024-02-04T12:56:49;0.70;;;0.70;;
8929;SDS011;4500;49.074;9.110;2024-02-04T12:59:24;1.27;;;1.27;;
8929;SDS011;4500;49.074;9.110;2024-02-04T13:01:53;0.90;;;0.90;;
8929;SDS011;4500;49.074;9.110;2024-02-04T13:04:21;1.50;;;1.47;;
8929;SDS011;4500;49.074;9.110;2024-02-04T13:06:50;0.90;;;0.90;;
8929;SDS011;4500;49.074;9.110;2024-02-04T13:09:19;0.90;;;0.90;;
8929;SDS011;4500;49.074;9.110;2024-02-04T13:11:47;0.90;;;0.90;;
8929;SDS011;4500;49.074;9.110;2024-02-04T13:14:14;1.27;;;1.27;;
8929;SDS011;4500;49.074;9.110;2024-02-04T13:16:42;2.73;;;2.63;;
8929;SDS011;4500;49.074;9.110;2024-02-04T13:19:09;4.50;;;4.30;;
8929;SDS011;4500;49.074;9.110;2024-02-04T13:21:37;5.07;;;4.83;;
8929;SDS011;4500;49.074;9.110;2024-02-04T13:24:05;5.00;;;4.80;;
8929;SDS011;4500;49.074;9.110;2024-02-04T13:26:33;5.90;;;5.60;;
8929;SDS011;4500;49.074;9.110;2024-02-04T13:29:00;4.27;;;4.07;;
8929;SDS011;4500;49.074;9.110;2024-02-04T13:31:27;4.47;;;4.27;;
8929;SDS011;4500;49.074;9.110;2024-02-04T13:33:56;1.93;;;1.87;;
8929;SDS011;4500;49.074;9.110;2024-02-04T13:36:24;1.80;;;1.70;;
8929;SDS011;4500;49.074;9.110;2024-02-04T13:38:51;1.03;;;1.03;;
8929;SDS011;4500;49.074;9.110;2024-02-04T13:41:19;1.00;;;1.00;;
8929;SDS011;4500;49.074;9.110;2024-02-04T13:43:47;0.97;;;0.97;;
8929;SDS011;4500;49.074;9.110;2024-02-04T13:46:14;1.10;;;1.10;;
8929;SDS011;4500;49.074;9.110;2024-02-04T13:48:41;3.43;;;3.33;;
8929;SDS011;4500;49.074;9.110;2024-02-04T13:51:09;5.13;;;4.93;;
8929;SDS011;4500;49.074;9.110;2024-02-04T13:53:36;5.10;;;4.87;;
8929;SDS011;4500;49.074;9.110;2024-02-04T13:56:04;4.80;;;4.60;;
8929;SDS011;4500;49.074;9.110;2024-02-04T13:58:32;5.50;;;5.23;;
8929;SDS011;4500;49.074;9.110;2024-02-04T14:00:59;4.03;;;3.83;;
8929;SDS011;4500;49.074;9.110;2024-02-04T14:03:27;4.73;;;4.50;;
8929;SDS011;4500;49.074;9.110;2024-02-04T14:05:54;1.93;;;1.87;;
8929;SDS011;4500;49.074;9.110;2024-02-04T14:08:22;0.87;;;0.87;;
8929;SDS011;4500;49.074;9.110;2024-02-04T14:10:50;13.77;;;11.10;;
8929;SDS011;4500;49.074;9.110;2024-02-04T14:13:18;1.73;;;1.70;;
8929;SDS011;4500;49.074;9.110;2024-02-04T14:15:46;0.80;;;0.80;;
8929;SDS011;4500;49.074;9.110;2024-02-04T14:18:15;1.00;;;1.00;;
8929;SDS011;4500;49.074;9.110;2024-02-04T14:20:42;2.30;;;2.20;;
8929;SDS011;4500;49.074;9.110;2024-02-04T14:23:10;4.90;;;4.70;;
8929;SDS011;4500;49.074;9.110;2024-02-04T14:25:37;4.97;;;4.73;;
8929;SDS011;4500;49.074;9.110;2024-02-04T14:28:05;5.23;;;5.00;;
8929;SDS011;4500;49.074;9.110;2024-02-04T14:30:32;7.10;;;6.77;;
8929;SDS011;4500;49.074;9.110;2024-02-04T14:33:00;4.50;;;4.30;;
8929;SDS011;4500;49.074;9.110;2024-02-04T14:35:28;4.30;;;4.10;;
8929;SDS011;4500;49.074;9.110;2024-02-04T14:37:57;3.63;;;3.47;;
8929;SDS011;4500;49.074;9.110;2024-02-04T14:40:25;1.93;;;1.87;;
8929;SDS011;4500;49.074;9.110;2024-02-04T14:42:52;1.20;;;1.20;;
8929;SDS011;4500;49.074;9.110;2024-02-04T14:45:20;4.20;;;3.50;;
8929;SDS011;4500;49.074;9.110;2024-02-04T14:47:48;1.00;;;1.00;;
8929;SDS011;4500;49.074;9.110;2024-02-04T14:50:17;0.93;;;0.93;;
8929;SDS011;4500;49.074;9.110;2024-02-04T14:52:47;0.80;;;0.80;;
8929;SDS011;4500;49.074;9.110;2024-02-04T14:55:14;1.00;;;1.00;;
8929;SDS011;4500;49.074;9.110;2024-02-04T14:57:45;0.80;;;0.80;;
8929;SDS011;4500;49.074;9.110;2024-02-04T15:00:13;2.40;;;2.30;;
8929;SDS011;4500;49.074;9.110;2024-02-04T15:02:41;3.60;;;3.47;;
8929;SDS011;4500;49.074;9.110;2024-02-04T15:05:09;5.27;;;5.07;;
8929;SDS011;4500;49.074;9.110;2024-02-04T15:07:38;5.37;;;5.10;;
8929;SDS011;4500;49.074;9.110;2024-02-04T15:10:05;4.83;;;4.63;;
8929;SDS011;4500;49.074;9.110;2024-02-04T15:12:33;5.97;;;5.67;;
8929;SDS011;4500;49.074;9.110;2024-02-04T15:15:01;5.37;;;5.13;;
8929;SDS011;4500;49.074;9.110;2024-02-04T15:17:30;5.40;;;5.17;;
8929;SDS011;4500;49.074;9.110;2024-02-04T15:19:57;4.40;;;4.20;;
8929;SDS011;4500;49.074;9.110;2024-02-04T15:22:25;3.00;;;2.87;;
8929;SDS011;4500;49.074;9.110;2024-02-04T15:24:53;1.10;;;1.10;;
8929;SDS011;4500;49.074;9.110;2024-02-04T15:27:21;0.90;;;0.90;;
8929;SDS011;4500;49.074;9.110;2024-02-04T15:29:49;1.00;;;1.00;;
8929;SDS011;4500;49.074;9.110;2024-02-04T15:32:18;1.17;;;1.17;;
8929;SDS011;4500;49.074;9.110;2024-02-04T15:34:46;0.97;;;0.97;;